Time;durP1;ratioP1;P1;durP2;ratioP2;P2;SDS_P1;SDS_P2;PMS_P1;PMS_P2;Temp;Humidity;BMP_temperature;BMP_pressure;BME280_temperature;BME280_humidity;BME280_pressure;Samples;Min_cycle;Max_cycle;Signal;HPM_P1;HPM_P2
2022/10/10 00:00:34;;;;;;;1.57;1.53;;;;;;;;;;5043824;28;20511;-77
2022/10/10 00:03:00;;;;;;;1.47;1.47;;;;;;;;;;5037299;28;20469;-77
2022/10/10 00:05:26;;;;;;;1.93;1.93;;;;;;;;;;5032147;28;20445;-77
2022/10/10 00:07:52;;;;;;;1.70;1.70;;;;;;;;;;5026897;28;20430;-77
2022/10/10 00:10:18;;;;;;;3.60;1.80;;;;;;;;;;5045540;28;20799;-77
2022/10/10 00:12:44;;;;;;;2.73;1.40;;;;;;;;;;5035414;28;20460;-76
2022/10/10 00:15:11;;;;;;;1.67;1.67;;;;;;;;;;5029265;28;20438;-79
2022/10/10 00:17:37;;;;;;;1.60;1.60;;;;;;;;;;5033347;28;20589;-77
2022/10/10 00:20:03;;;;;;;1.40;1.40;;;;;;;;;;5045692;28;20895;-77
2022/10/10 00:22:29;;;;;;;2.20;1.43;;;;;;;;;;5031922;28;20759;-77
2022/10/10 00:24:55;;;;;;;2.00;1.70;;;;;;;;;;5045565;28;20504;-77
2022/10/10 00:27:21;;;;;;;1.83;1.70;;;;;;;;;;5030793;28;20927;-77
2022/10/10 00:29:47;;;;;;;2.73;2.20;;;;;;;;;;5047319;28;20429;-77
2022/10/10 00:32:13;;;;;;;1.70;1.70;;;;;;;;;;5027482;28;21159;-78
2022/10/10 00:34:39;;;;;;;1.90;1.67;;;;;;;;;;5047307;28;20402;-77
2022/10/10 00:37:05;;;;;;;1.97;1.97;;;;;;;;;;5042355;28;20981;-77
2022/10/10 00:39:31;;;;;;;1.60;1.50;;;;;;;;;;5047248;28;20416;-77
2022/10/10 00:41:57;;;;;;;1.63;1.63;;;;;;;;;;5040176;28;20437;-76
2022/10/10 00:44:23;;;;;;;3.97;1.83;;;;;;;;;;5047365;28;20450;-76
2022/10/10 00:46:49;;;;;;;1.67;1.67;;;;;;;;;;5041371;28;20865;-76
2022/10/10 00:49:17;;;;;;;1.90;1.90;;;;;;;;;;5045266;28;20481;-77
2022/10/10 00:51:47;;;;;;;1.80;1.80;;;;;;;;;;5043754;28;20437;-77
2022/10/10 00:54:14;;;;;;;2.10;2.10;;;;;;;;;;5038626;28;20497;-77
2022/10/10 00:56:47;;;;;;;1.97;1.80;;;;;;;;;;5062358;28;20954;-77
2022/10/10 00:59:14;;;;;;;1.77;1.77;;;;;;;;;;5040384;28;20497;-77
2022/10/10 01:01:40;;;;;;;1.67;1.67;;;;;;;;;;5044804;28;20453;-77
2022/10/10 01:04:06;;;;;;;1.70;1.70;;;;;;;;;;5057950;28;20537;-76
2022/10/10 01:06:33;;;;;;;1.70;1.60;;;;;;;;;;5044218;28;20425;-78
2022/10/10 01:09:00;;;;;;;1.77;1.77;;;;;;;;;;5025822;28;20510;-76
2022/10/10 01:11:47;;;;;;;1.60;1.50;;;;;;;;;;5044148;28;20445;-77
2022/10/10 01:14:23;;;;;;;2.50;2.10;;;;;;;;;;5005655;28;20451;-77
2022/10/10 01:16:52;;;;;;;2.00;2.00;;;;;;;;;;5034712;28;20433;-79
2022/10/10 01:19:21;;;;;;;3.43;1.60;;;;;;;;;;5025274;28;20497;-77
2022/10/10 01:21:47;;;;;;;2.30;1.60;;;;;;;;;;5043576;28;20500;-77
2022/10/10 01:24:30;;;;;;;1.40;1.40;;;;;;;;;;5025349;28;20462;-77
2022/10/10 01:27:17;;;;;;;1.60;1.60;;;;;;;;;;5034401;28;20902;-77
2022/10/10 01:29:52;;;;;;;2.23;2.13;;;;;;;;;;5046090;28;20423;-77
2022/10/10 01:32:26;;;;;;;2.50;2.30;;;;;;;;;;5071682;28;20452;-77
2022/10/10 01:34:55;;;;;;;1.60;1.60;;;;;;;;;;5026464;28;20406;-77
2022/10/10 01:37:25;;;;;;;1.37;1.37;;;;;;;;;;5042203;28;20859;-77
2022/10/10 01:39:58;;;;;;;1.80;1.80;;;;;;;;;;5045988;28;20429;-77
2022/10/10 01:42:35;;;;;;;1.70;1.70;;;;;;;;;;5041058;28;20434;-77
2022/10/10 01:45:01;;;;;;;2.47;2.00;;;;;;;;;;5044503;28;20993;-76
2022/10/10 01:53:53;;;;;;;1.93;1.93;;;;;;;;;;5029513;28;20424;-77
2022/10/10 01:56:33;;;;;;;2.13;1.97;;;;;;;;;;5034587;28;20437;-77
2022/10/10 01:59:02;;;;;;;2.00;1.90;;;;;;;;;;5004826;28;20501;-77
2022/10/10 02:01:36;;;;;;;2.00;2.00;;;;;;;;;;5042682;28;20541;-77
2022/10/10 02:04:05;;;;;;;1.80;1.70;;;;;;;;;;5024485;28;20569;-77
2022/10/10 02:06:41;;;;;;;2.97;1.77;;;;;;;;;;5043268;28;20535;-76
2022/10/10 02:09:10;;;;;;;1.70;1.60;;;;;;;;;;5024684;28;20426;-78
2022/10/10 02:11:37;;;;;;;1.43;1.43;;;;;;;;;;5043023;28;20524;-78
2022/10/10 02:14:09;;;;;;;2.47;2.37;;;;;;;;;;5019770;28;20449;-77
2022/10/10 02:16:38;;;;;;;2.00;1.90;;;;;;;;;;5043624;28;20456;-77
2022/10/10 02:19:07;;;;;;;2.00;2.00;;;;;;;;;;5024469;28;20480;-77
2022/10/10 02:21:33;;;;;;;1.90;1.90;;;;;;;;;;5034518;28;20437;-77
2022/10/10 02:24:01;;;;;;;1.87;1.87;;;;;;;;;;5024342;28;20990;-77
2022/10/10 02:26:28;;;;;;;2.23;2.13;;;;;;;;;;5043109;28;20437;-76
2022/10/10 02:29:03;;;;;;;1.80;1.73;;;;;;;;;;5055864;28;20454;-76
2022/10/10 02:31:35;;;;;;;2.57;2.37;;;;;;;;;;5043365;28;21076;-77
2022/10/10 02:34:04;;;;;;;2.27;2.17;;;;;;;;;;5023782;28;20481;-76
2022/10/10 02:36:30;;;;;;;2.13;1.93;;;;;;;;;;5042935;28;20445;-77
2022/10/10 02:38:57;;;;;;;1.80;1.80;;;;;;;;;;5024015;28;20808;-76
2022/10/10 02:41:23;;;;;;;1.93;1.93;;;;;;;;;;5042736;28;20528;-78
2022/10/10 02:43:52;;;;;;;1.70;1.70;;;;;;;;;;5024064;28;20910;-77
2022/10/10 02:46:19;;;;;;;1.93;1.90;;;;;;;;;;5041263;28;20950;-77
2022/10/10 02:48:45;;;;;;;2.53;2.30;;;;;;;;;;5024212;28;20447;-77
2022/10/10 02:51:11;;;;;;;3.77;2.43;;;;;;;;;;5042023;28;20445;-77
2022/10/10 02:53:37;;;;;;;1.80;1.80;;;;;;;;;;5039131;28;20444;-77
2022/10/10 02:56:04;;;;;;;5.53;2.73;;;;;;;;;;5043834;28;20468;-77
2022/10/10 02:58:30;;;;;;;2.20;2.00;;;;;;;;;;5039911;28;20450;-77
2022/10/10 03:00:56;;;;;;;2.80;2.60;;;;;;;;;;5032550;28;20468;-77
2022/10/10 03:03:22;;;;;;;2.30;2.20;;;;;;;;;;5027803;28;20545;-77
2022/10/10 03:05:48;;;;;;;2.83;2.63;;;;;;;;;;5037955;28;21121;-77
2022/10/10 03:08:14;;;;;;;2.10;2.10;;;;;;;;;;5033349;28;20778;-77
2022/10/10 03:10:40;;;;;;;2.30;2.10;;;;;;;;;;5037558;28;20449;-78
2022/10/10 03:13:06;;;;;;;2.63;2.30;;;;;;;;;;5029864;28;20450;-77
2022/10/10 03:15:32;;;;;;;2.40;2.40;;;;;;;;;;5035362;28;20816;-76
2022/10/10 03:17:58;;;;;;;2.70;2.50;;;;;;;;;;5027031;28;20436;-78
2022/10/10 03:20:24;;;;;;;2.73;2.60;;;;;;;;;;5043177;28;20846;-77
2022/10/10 03:22:50;;;;;;;2.20;2.10;;;;;;;;;;5034090;28;20430;-77
2022/10/10 03:25:16;;;;;;;2.87;2.77;;;;;;;;;;5037388;28;20517;-78
2022/10/10 03:27:42;;;;;;;2.67;2.53;;;;;;;;;;5038829;28;20524;-77
2022/10/10 03:30:08;;;;;;;2.57;2.47;;;;;;;;;;5036690;28;20414;-77
2022/10/10 03:32:34;;;;;;;2.40;2.30;;;;;;;;;;5026074;28;20470;-77
2022/10/10 03:35:00;;;;;;;2.83;2.63;;;;;;;;;;5036555;28;20457;-77
2022/10/10 03:37:26;;;;;;;2.60;2.50;;;;;;;;;;5032414;28;20437;-77
2022/10/10 03:39:53;;;;;;;2.23;2.20;;;;;;;;;;5036960;28;20434;-77
2022/10/10 03:42:19;;;;;;;3.23;3.13;;;;;;;;;;5034818;28;20560;-76
2022/10/10 03:44:45;;;;;;;2.80;2.80;;;;;;;;;;5037972;28;20454;-76
2022/10/10 03:47:11;;;;;;;2.53;2.43;;;;;;;;;;5028513;28;20434;-77
2022/10/10 03:49:37;;;;;;;3.53;2.83;;;;;;;;;;5037795;28;20429;-77
2022/10/10 03:52:03;;;;;;;2.70;2.70;;;;;;;;;;5033134;28;20960;-76
2022/10/10 03:54:29;;;;;;;2.83;2.60;;;;;;;;;;5037871;28;20422;-76
2022/10/10 03:56:55;;;;;;;2.70;2.60;;;;;;;;;;5033304;28;20811;-76
2022/10/10 03:59:21;;;;;;;2.67;2.57;;;;;;;;;;5036019;28;20902;-77
2022/10/10 04:01:47;;;;;;;2.40;2.40;;;;;;;;;;5030045;28;20517;-77
2022/10/10 04:04:13;;;;;;;3.10;2.90;;;;;;;;;;5036520;28;20741;-77
2022/10/10 04:06:39;;;;;;;3.00;2.80;;;;;;;;;;5032696;28;20446;-77
2022/10/10 04:09:05;;;;;;;4.23;2.80;;;;;;;;;;5035671;28;20434;-77
2022/10/10 04:11:31;;;;;;;2.47;2.40;;;;;;;;;;5034177;28;20986;-77
2022/10/10 04:13:57;;;;;;;4.33;2.67;;;;;;;;;;5032957;28;20440;-77
2022/10/10 04:16:23;;;;;;;2.67;2.67;;;;;;;;;;5041088;28;20795;-76
2022/10/10 04:18:49;;;;;;;2.90;2.80;;;;;;;;;;5030692;28;20430;-76
2022/10/10 04:21:15;;;;;;;3.23;2.97;;;;;;;;;;5036363;28;20430;-77
2022/10/10 04:23:41;;;;;;;3.40;3.30;;;;;;;;;;5027932;28;20512;-78
2022/10/10 04:26:07;;;;;;;2.40;2.40;;;;;;;;;;5036237;28;20508;-77
2022/10/10 04:28:33;;;;;;;3.23;3.13;;;;;;;;;;5035672;28;20520;-77
2022/10/10 04:30:59;;;;;;;4.73;4.00;;;;;;;;;;5035882;28;20475;-76
2022/10/10 04:33:25;;;;;;;6.07;4.20;;;;;;;;;;5038341;28;20419;-78
2022/10/10 04:35:51;;;;;;;3.10;3.00;;;;;;;;;;5042144;28;20903;-77
2022/10/10 04:38:20;;;;;;;2.83;2.60;;;;;;;;;;5034740;28;20423;-77
2022/10/10 04:40:48;;;;;;;5.50;3.50;;;;;;;;;;5035092;28;20764;-77
2022/10/10 04:43:14;;;;;;;3.50;3.37;;;;;;;;;;5039718;28;20465;-78
2022/10/10 04:45:40;;;;;;;3.30;3.10;;;;;;;;;;5035396;28;20483;-78
2022/10/10 04:48:06;;;;;;;3.30;3.10;;;;;;;;;;5034958;28;20441;-77
2022/10/10 04:50:33;;;;;;;3.43;3.23;;;;;;;;;;5069865;28;20517;-78
2022/10/10 04:52:59;;;;;;;6.63;3.37;;;;;;;;;;5034571;28;20576;-78
2022/10/10 04:55:25;;;;;;;3.10;3.00;;;;;;;;;;5045820;28;20433;-78
2022/10/10 04:57:50;;;;;;;3.73;3.53;;;;;;;;;;5046520;28;20479;-77
2022/10/10 05:00:16;;;;;;;3.50;3.30;;;;;;;;;;5038468;28;20963;-77
2022/10/10 05:02:43;;;;;;;3.43;3.23;;;;;;;;;;5026414;28;20453;-77
2022/10/10 05:05:09;;;;;;;3.67;3.37;;;;;;;;;;5032837;28;20490;-78
2022/10/10 05:07:35;;;;;;;3.00;2.90;;;;;;;;;;5034352;28;20471;-77
2022/10/10 05:10:01;;;;;;;3.30;3.20;;;;;;;;;;5035975;28;20452;-77
2022/10/10 05:12:27;;;;;;;3.07;2.97;;;;;;;;;;5030791;28;20462;-77
2022/10/10 05:14:53;;;;;;;4.30;3.40;;;;;;;;;;5025538;28;20453;-77
2022/10/10 05:17:19;;;;;;;3.57;3.37;;;;;;;;;;5033217;28;21023;-78
2022/10/10 05:19:45;;;;;;;3.23;3.03;;;;;;;;;;5034166;28;20951;-77
2022/10/10 05:22:11;;;;;;;4.23;3.83;;;;;;;;;;5032067;28;20521;-77
2022/10/10 05:24:39;;;;;;;3.33;3.10;;;;;;;;;;5026206;28;20517;-77
2022/10/10 05:27:05;;;;;;;3.30;3.20;;;;;;;;;;5039605;28;20447;-77
2022/10/10 05:29:31;;;;;;;4.17;3.80;;;;;;;;;;5037820;28;20824;-78
2022/10/10 05:31:57;;;;;;;4.07;3.67;;;;;;;;;;5060893;28;20805;-78
2022/10/10 05:34:23;;;;;;;3.70;3.23;;;;;;;;;;5036548;28;20471;-78
2022/10/10 05:36:49;;;;;;;3.73;3.47;;;;;;;;;;5031824;28;20967;-78
2022/10/10 05:39:15;;;;;;;2.70;2.60;;;;;;;;;;5031917;28;20496;-78
2022/10/10 05:41:41;;;;;;;2.80;2.63;;;;;;;;;;5031858;28;20449;-77
2022/10/10 05:44:08;;;;;;;4.30;3.57;;;;;;;;;;5067345;28;20850;-78
2022/10/10 05:46:34;;;;;;;3.80;3.63;;;;;;;;;;5026564;28;20450;-77
2022/10/10 05:49:00;;;;;;;3.33;2.60;;;;;;;;;;5025762;28;20446;-77
2022/10/10 05:51:25;;;;;;;3.17;3.07;;;;;;;;;;5038923;28;20452;-77
2022/10/10 05:53:51;;;;;;;4.20;3.17;;;;;;;;;;4682042;28;9999976;-77
2022/10/10 05:56:17;;;;;;;3.23;2.90;;;;;;;;;;5030396;28;20203;-79
2022/10/10 05:58:44;;;;;;;3.77;3.10;;;;;;;;;;5023000;28;20528;-77
2022/10/10 06:01:10;;;;;;;3.53;3.33;;;;;;;;;;5033144;28;20442;-77
2022/10/10 06:03:36;;;;;;;3.83;3.33;;;;;;;;;;5020215;28;20489;-77
2022/10/10 06:06:02;;;;;;;4.07;3.87;;;;;;;;;;5022860;28;20804;-79
2022/10/10 06:08:29;;;;;;;6.80;4.37;;;;;;;;;;5028882;28;20450;-79
2022/10/10 06:11:00;;;;;;;4.57;4.23;;;;;;;;;;5025887;28;20430;-78
2022/10/10 06:13:26;;;;;;;3.50;3.30;;;;;;;;;;5028834;28;20505;-77
2022/10/10 06:15:53;;;;;;;3.63;3.43;;;;;;;;;;5025017;28;20435;-77
2022/10/10 06:18:19;;;;;;;3.70;3.30;;;;;;;;;;5027777;28;20522;-79
2022/10/10 06:20:45;;;;;;;4.60;4.23;;;;;;;;;;5021824;28;20988;-78
2022/10/10 06:23:11;;;;;;;3.90;3.70;;;;;;;;;;5022079;28;20458;-78
2022/10/10 06:25:38;;;;;;;4.10;3.70;;;;;;;;;;5021534;28;20767;-78
2022/10/10 06:28:04;;;;;;;4.00;3.70;;;;;;;;;;5023443;28;20799;-79
2022/10/10 06:30:30;;;;;;;3.47;3.10;;;;;;;;;;5023600;28;20418;-80
2022/10/10 06:32:57;;;;;;;4.00;3.67;;;;;;;;;;5026994;28;20492;-78
2022/10/10 06:35:23;;;;;;;4.57;3.73;;;;;;;;;;5021665;28;20434;-77
2022/10/10 06:37:49;;;;;;;6.33;3.60;;;;;;;;;;5030088;28;20488;-79
2022/10/10 06:40:15;;;;;;;3.77;3.50;;;;;;;;;;5043633;28;20545;-78
2022/10/10 06:42:41;;;;;;;3.27;3.07;;;;;;;;;;5040152;28;20449;-78
2022/10/10 06:45:07;;;;;;;4.43;4.23;;;;;;;;;;5025657;28;20482;-78
2022/10/10 06:47:33;;;;;;;4.10;3.40;;;;;;;;;;5044254;28;20562;-79
2022/10/10 06:49:59;;;;;;;3.60;3.37;;;;;;;;;;5027685;28;20438;-79
2022/10/10 06:52:25;;;;;;;5.03;3.43;;;;;;;;;;5035536;28;20442;-77
2022/10/10 06:54:51;;;;;;;3.60;3.13;;;;;;;;;;5033862;28;20530;-78
2022/10/10 06:57:17;;;;;;;3.77;3.57;;;;;;;;;;5054839;28;20491;-78
2022/10/10 06:59:43;;;;;;;4.83;2.90;;;;;;;;;;5030600;28;20939;-77
2022/10/10 07:02:13;;;;;;;3.20;3.10;;;;;;;;;;5047094;28;20875;-77
2022/10/10 07:04:39;;;;;;;2.97;2.87;;;;;;;;;;5027760;28;20454;-77
2022/10/10 07:07:05;;;;;;;3.43;3.13;;;;;;;;;;5046344;28;20964;-78
2022/10/10 07:09:31;;;;;;;3.40;3.30;;;;;;;;;;5059091;28;20507;-76
2022/10/10 07:11:56;;;;;;;3.50;3.40;;;;;;;;;;5042465;28;20480;-79
2022/10/10 07:14:23;;;;;;;3.70;3.47;;;;;;;;;;5036445;28;20528;-78
2022/10/10 07:16:49;;;;;;;3.27;3.10;;;;;;;;;;5031150;28;20942;-78
2022/10/10 07:19:15;;;;;;;3.70;3.60;;;;;;;;;;5045940;28;20430;-77
2022/10/10 07:21:41;;;;;;;5.17;4.00;;;;;;;;;;5030165;28;20429;-79
2022/10/10 07:24:07;;;;;;;3.17;2.97;;;;;;;;;;5033876;28;20506;-77
2022/10/10 07:26:37;;;;;;;9.00;3.63;;;;;;;;;;5078100;28;20398;-77
2022/10/10 07:29:03;;;;;;;3.73;3.53;;;;;;;;;;5064371;28;20441;-77
2022/10/10 07:31:28;;;;;;;3.37;3.17;;;;;;;;;;5045585;28;20887;-79
2022/10/10 07:33:55;;;;;;;4.23;4.03;;;;;;;;;;5031416;28;20440;-77
2022/10/10 07:36:20;;;;;;;3.47;3.37;;;;;;;;;;5045966;28;20410;-78
2022/10/10 07:38:50;;;;;;;3.90;3.70;;;;;;;;;;5030271;28;20429;-78
2022/10/10 07:41:16;;;;;;;2.87;2.87;;;;;;;;;;5047311;28;20875;-78
2022/10/10 07:43:42;;;;;;;4.00;3.70;;;;;;;;;;5021413;28;21172;-78
2022/10/10 07:46:14;;;;;;;7.67;4.33;;;;;;;;;;5036679;28;20509;-77
2022/10/10 07:48:40;;;;;;;4.20;3.60;;;;;;;;;;5039231;28;20932;-78
2022/10/10 07:51:07;;;;;;;3.50;3.40;;;;;;;;;;5027668;28;20441;-78
2022/10/10 07:53:33;;;;;;;3.90;3.60;;;;;;;;;;5041892;28;20460;-78
2022/10/10 07:55:59;;;;;;;4.00;3.70;;;;;;;;;;5039841;28;20786;-79
2022/10/10 07:58:24;;;;;;;4.67;3.73;;;;;;;;;;5027196;28;20453;-77
2022/10/10 08:00:50;;;;;;;4.10;3.70;;;;;;;;;;5047356;28;20410;-79
2022/10/10 08:03:16;;;;;;;3.50;3.20;;;;;;;;;;5041079;28;20495;-78
2022/10/10 08:05:45;;;;;;;8.00;4.33;;;;;;;;;;5045382;28;20429;-80
2022/10/10 08:08:11;;;;;;;4.60;3.80;;;;;;;;;;5039671;28;20434;-78
2022/10/10 08:10:42;;;;;;;5.23;3.77;;;;;;;;;;5026256;28;20426;-78
2022/10/10 08:13:08;;;;;;;3.93;3.63;;;;;;;;;;5037944;28;20458;-79
2022/10/10 08:15:34;;;;;;;4.80;4.50;;;;;;;;;;5026142;28;20445;-78
2022/10/10 08:18:00;;;;;;;6.00;3.90;;;;;;;;;;5043825;28;20829;-77
2022/10/10 08:20:25;;;;;;;7.03;4.10;;;;;;;;;;5025717;28;20445;-77
2022/10/10 08:22:51;;;;;;;4.00;3.70;;;;;;;;;;5043714;28;20465;-80
2022/10/10 08:25:17;;;;;;;4.40;4.10;;;;;;;;;;5057528;28;20474;-80
2022/10/10 08:27:44;;;;;;;4.80;4.40;;;;;;;;;;5033530;28;20433;-79
2022/10/10 08:30:10;;;;;;;4.47;4.10;;;;;;;;;;5030236;28;20473;-80
2022/10/10 08:32:36;;;;;;;4.57;4.23;;;;;;;;;;5044196;28;20445;-80
2022/10/10 08:35:02;;;;;;;3.13;3.03;;;;;;;;;;5025678;28;20438;-80
2022/10/10 08:37:28;;;;;;;4.03;3.77;;;;;;;;;;5043654;28;20534;-79
2022/10/10 08:39:54;;;;;;;3.20;3.10;;;;;;;;;;5031635;28;20675;-80
2022/10/10 08:42:32;;;;;;;27.30;6.73;;;;;;;;;;5044985;28;20483;-79
2022/10/10 08:45:02;;;;;;;4.37;3.93;;;;;;;;;;5021067;28;20496;-78
2022/10/10 08:47:37;;;;;;;3.73;3.63;;;;;;;;;;4335592;28;10001017;-79
2022/10/10 08:50:23;;;;;;;3.53;3.30;;;;;;;;;;5028021;28;20249;-80
2022/10/10 08:52:51;;;;;;;3.73;3.60;;;;;;;;;;5026048;28;20511;-79
2022/10/10 08:55:19;;;;;;;4.10;3.83;;;;;;;;;;5023956;28;20438;-81
2022/10/10 08:57:48;;;;;;;5.27;3.37;;;;;;;;;;5021291;28;20454;-81
2022/10/10 09:00:16;;;;;;;2.83;2.73;;;;;;;;;;5022939;28;20465;-79
2022/10/10 09:02:47;;;;;;;3.37;3.17;;;;;;;;;;5028595;28;20670;-77
2022/10/10 09:05:16;;;;;;;8.63;3.43;;;;;;;;;;5017398;28;20486;-79
2022/10/10 09:08:00;;;;;;;5.13;3.67;;;;;;;;;;5034024;28;20909;-76
2022/10/10 09:10:34;;;;;;;3.70;3.50;;;;;;;;;;5021925;28;20461;-75
2022/10/10 09:13:00;;;;;;;5.50;5.20;;;;;;;;;;5013630;28;20493;-76
2022/10/10 09:15:44;;;;;;;3.57;3.37;;;;;;;;;;5020402;28;20438;-76
2022/10/10 09:18:22;;;;;;;3.50;3.20;;;;;;;;;;5022303;28;20521;-77
2022/10/10 09:21:20;;;;;;;4.50;4.10;;;;;;;;;;5017807;28;20474;-79
2022/10/10 09:23:51;;;;;;;6.60;3.73;;;;;;;;;;4981560;28;20481;-79
2022/10/10 09:26:19;;;;;;;5.93;4.40;;;;;;;;;;5012736;28;20418;-79
2022/10/10 09:29:03;;;;;;;3.67;3.47;;;;;;;;;;5024905;28;20434;-79
2022/10/10 09:31:34;;;;;;;3.60;3.40;;;;;;;;;;5015104;28;20414;-79
2022/10/10 09:34:06;;;;;;;4.93;3.77;;;;;;;;;;5023290;28;20872;-79
2022/10/10 09:36:35;;;;;;;6.17;3.90;;;;;;;;;;5022620;28;20790;-79
2022/10/10 09:39:12;;;;;;;3.70;3.60;;;;;;;;;;5024772;28;20445;-78
2022/10/10 09:41:45;;;;;;;3.47;3.27;;;;;;;;;;5022256;28;20588;-80
2022/10/10 09:44:14;;;;;;;4.53;3.00;;;;;;;;;;5026174;28;20469;-78
2022/10/10 09:46:40;;;;;;;3.00;2.90;;;;;;;;;;5031996;28;20936;-79
2022/10/10 09:49:06;;;;;;;5.00;3.60;;;;;;;;;;5022484;28;20442;-80
2022/10/10 09:51:32;;;;;;;3.23;3.03;;;;;;;;;;5024844;28;20411;-78
2022/10/10 09:53:58;;;;;;;3.20;3.00;;;;;;;;;;5026619;28;20446;-79
2022/10/10 09:56:26;;;;;;;3.23;3.00;;;;;;;;;;5014810;28;20792;-77
2022/10/10 09:58:53;;;;;;;4.23;3.40;;;;;;;;;;5021892;28;20533;-79
2022/10/10 10:01:23;;;;;;;5.30;3.17;;;;;;;;;;5022272;28;20858;-79
2022/10/10 10:04:06;;;;;;;4.20;3.40;;;;;;;;;;5020822;28;20478;-78
2022/10/10 10:06:32;;;;;;;3.20;3.07;;;;;;;;;;5013497;28;20418;-79
2022/10/10 10:09:02;;;;;;;3.13;2.60;;;;;;;;;;5024030;28;20454;-79
2022/10/10 10:11:31;;;;;;;3.83;3.30;;;;;;;;;;5022354;28;20541;-78
2022/10/10 10:14:01;;;;;;;3.37;3.27;;;;;;;;;;5022904;28;20750;-80
2022/10/10 10:16:32;;;;;;;3.63;3.07;;;;;;;;;;5033078;28;21009;-78
2022/10/10 10:18:58;;;;;;;4.83;3.23;;;;;;;;;;5022374;28;20594;-79
2022/10/10 10:21:24;;;;;;;6.00;3.20;;;;;;;;;;5027296;28;20831;-78
2022/10/10 10:23:50;;;;;;;6.13;3.47;;;;;;;;;;5025085;28;20830;-77
2022/10/10 10:26:17;;;;;;;3.33;3.00;;;;;;;;;;5042562;28;20477;-77
2022/10/10 10:28:43;;;;;;;4.43;3.37;;;;;;;;;;5038057;28;20596;-79
2022/10/10 10:31:18;;;;;;;3.70;2.80;;;;;;;;;;5023671;28;20438;-78
2022/10/10 10:34:00;;;;;;;6.83;3.53;;;;;;;;;;5039933;28;20481;-78
2022/10/10 10:36:26;;;;;;;4.20;3.80;;;;;;;;;;5044664;28;20487;-78
2022/10/10 10:39:11;;;;;;;3.10;2.90;;;;;;;;;;5037139;28;20963;-78
2022/10/10 10:41:43;;;;;;;6.07;3.80;;;;;;;;;;5023728;28;20920;-78
2022/10/10 10:44:11;;;;;;;4.73;2.90;;;;;;;;;;5036680;28;20483;-80
2022/10/10 10:46:56;;;;;;;3.10;2.80;;;;;;;;;;5044640;28;20752;-80
2022/10/10 10:49:28;;;;;;;3.50;3.30;;;;;;;;;;5027612;28;20430;-79
2022/10/10 10:51:54;;;;;;;3.93;3.03;;;;;;;;;;5032480;28;20430;-79
2022/10/10 10:54:23;;;;;;;3.37;3.17;;;;;;;;;;5031525;28;20503;-80
2022/10/10 10:56:54;;;;;;;7.60;3.50;;;;;;;;;;5045778;28;20512;-80
2022/10/10 10:59:26;;;;;;;3.13;3.03;;;;;;;;;;5041676;28;20567;-79
2022/10/10 11:02:01;;;;;;;4.00;3.73;;;;;;;;;;4682603;28;10000169;-79
2022/10/10 11:04:39;;;;;;;3.87;3.17;;;;;;;;;;5023924;28;20572;-80
2022/10/10 11:07:19;;;;;;;5.07;2.90;;;;;;;;;;5020566;28;20410;-80
2022/10/10 11:10:08;;;;;;;4.37;3.27;;;;;;;;;;5025698;28;20456;-80
2022/10/10 11:12:52;;;;;;;4.73;3.43;;;;;;;;;;5028792;28;20469;-79
2022/10/10 11:15:37;;;;;;;7.97;4.53;;;;;;;;;;5020140;28;20848;-79
2022/10/10 11:18:17;;;;;;;3.60;3.40;;;;;;;;;;5023644;28;20462;-79
2022/10/10 11:20:49;;;;;;;3.70;3.50;;;;;;;;;;5013914;28;20683;-79
2022/10/10 11:23:15;;;;;;;5.50;3.57;;;;;;;;;;5034921;28;20441;-79
2022/10/10 11:25:44;;;;;;;3.87;3.57;;;;;;;;;;5044608;28;20453;-80
2022/10/10 11:28:22;;;;;;;3.83;3.30;;;;;;;;;;5034647;28;20473;-80
2022/10/10 11:30:50;;;;;;;5.17;4.37;;;;;;;;;;5020755;28;20426;-77
2022/10/10 11:33:22;;;;;;;4.03;3.23;;;;;;;;;;5045793;28;20437;-79
2022/10/10 11:35:52;;;;;;;3.40;3.10;;;;;;;;;;5057943;28;20819;-78
2022/10/10 11:38:28;;;;;;;5.50;5.00;;;;;;;;;;5046308;28;20856;-78
2022/10/10 11:40:57;;;;;;;3.80;3.60;;;;;;;;;;5021033;28;20430;-79
2022/10/10 11:43:50;;;;;;;7.00;4.10;;;;;;;;;;5043796;28;21004;-78
2022/10/10 11:46:16;;;;;;;6.67;6.03;;;;;;;;;;5021104;28;20442;-76
2022/10/10 11:48:45;;;;;;;8.50;4.63;;;;;;;;;;5038563;28;20548;-79
2022/10/10 11:51:17;;;;;;;6.73;4.33;;;;;;;;;;5025841;28;20769;-76
2022/10/10 11:53:45;;;;;;;5.90;3.77;;;;;;;;;;5030870;28;21120;-78
2022/10/10 11:56:22;;;;;;;3.87;3.67;;;;;;;;;;5026161;28;20434;-78
2022/10/10 11:58:53;;;;;;;7.17;3.90;;;;;;;;;;5031368;28;20445;-79
2022/10/10 12:01:37;;;;;;;4.77;4.30;;;;;;;;;;5055291;28;20442;-79
2022/10/10 12:04:03;;;;;;;4.67;3.90;;;;;;;;;;5045275;28;20559;-78
2022/10/10 12:06:35;;;;;;;7.43;4.20;;;;;;;;;;5025709;28;20434;-77
2022/10/10 12:09:03;;;;;;;4.27;3.87;;;;;;;;;;5044600;28;20444;-77
2022/10/10 12:11:34;;;;;;;8.60;3.63;;;;;;;;;;5025763;28;20775;-78
2022/10/10 12:14:00;;;;;;;4.27;3.97;;;;;;;;;;5044755;28;20517;-78
2022/10/10 12:16:28;;;;;;;4.33;3.93;;;;;;;;;;5057600;28;20447;-77
2022/10/10 12:19:05;;;;;;;6.40;3.80;;;;;;;;;;5044539;28;20445;-77
2022/10/10 12:21:32;;;;;;;4.50;3.23;;;;;;;;;;5025372;28;20442;-77
2022/10/10 12:24:03;;;;;;;6.63;3.17;;;;;;;;;;5044180;28;20706;-77
2022/10/10 12:26:48;;;;;;;5.70;3.67;;;;;;;;;;5025319;28;20450;-78
2022/10/10 12:29:34;;;;;;;3.60;3.17;;;;;;;;;;5015799;28;20653;-78
2022/10/10 12:32:10;;;;;;;4.50;3.77;;;;;;;;;;5006856;28;20433;-79
2022/10/10 12:34:40;;;;;;;4.47;3.50;;;;;;;;;;5035349;28;20903;-77
2022/10/10 12:37:25;;;;;;;9.77;3.70;;;;;;;;;;5045276;28;20936;-76
2022/10/10 12:40:16;;;;;;;3.90;3.30;;;;;;;;;;5029143;28;20469;-78
2022/10/10 12:42:45;;;;;;;7.40;3.93;;;;;;;;;;5026144;28;20599;-79
2022/10/10 12:45:30;;;;;;;3.83;3.43;;;;;;;;;;5027719;28;20997;-78
2022/10/10 12:48:03;;;;;;;4.37;3.70;;;;;;;;;;5029499;28;20463;-76
2022/10/10 12:50:34;;;;;;;4.03;3.00;;;;;;;;;;5033741;28;20438;-78
2022/10/10 12:53:01;;;;;;;10.87;3.67;;;;;;;;;;5014809;28;21136;-78
2022/10/10 12:55:29;;;;;;;6.10;3.50;;;;;;;;;;5026188;28;21028;-78
2022/10/10 12:57:56;;;;;;;8.87;3.90;;;;;;;;;;5029108;28;20514;-79
2022/10/10 13:00:24;;;;;;;3.63;3.33;;;;;;;;;;5051826;28;20477;-79
2022/10/10 13:02:55;;;;;;;9.23;2.70;;;;;;;;;;5056213;28;20434;-78
2022/10/10 13:05:37;;;;;;;7.07;3.03;;;;;;;;;;5032341;28;20613;-78
2022/10/10 13:08:05;;;;;;;15.70;3.80;;;;;;;;;;5029308;28;20437;-79
2022/10/10 13:10:32;;;;;;;5.10;2.67;;;;;;;;;;5065229;28;20445;-80
2022/10/10 13:13:02;;;;;;;7.87;3.30;;;;;;;;;;5040893;28;20680;-80
2022/10/10 13:15:29;;;;;;;11.90;3.30;;;;;;;;;;5024000;28;20914;-78
2022/10/10 13:17:55;;;;;;;4.13;2.83;;;;;;;;;;5042692;28;20434;-78
2022/10/10 13:20:34;;;;;;;5.30;3.00;;;;;;;;;;5032183;28;20441;-80
2022/10/10 13:23:02;;;;;;;13.93;4.13;;;;;;;;;;5028526;28;20452;-78
2022/10/10 13:25:29;;;;;;;3.00;2.77;;;;;;;;;;5032112;28;20804;-78
2022/10/10 13:27:55;;;;;;;6.43;3.30;;;;;;;;;;5058803;28;20452;-77
2022/10/10 13:30:22;;;;;;;8.80;2.77;;;;;;;;;;5031699;28;20765;-79
2022/10/10 13:32:48;;;;;;;8.43;3.27;;;;;;;;;;5042436;28;20600;-78
2022/10/10 13:35:16;;;;;;;2.90;2.60;;;;;;;;;;5029668;28;20440;-77
2022/10/10 13:37:42;;;;;;;9.13;3.30;;;;;;;;;;4684642;28;10000009;-79
2022/10/10 13:40:18;;;;;;;3.60;2.97;;;;;;;;;;5021626;28;20533;-78
2022/10/10 13:42:45;;;;;;;4.43;2.90;;;;;;;;;;5021109;28;20442;-78
2022/10/10 13:45:23;;;;;;;6.20;2.67;;;;;;;;;;5027382;28;21175;-80
2022/10/10 13:47:51;;;;;;;3.80;2.47;;;;;;;;;;5021812;28;20406;-78
2022/10/10 13:50:26;;;;;;;5.93;2.87;;;;;;;;;;5031768;28;20437;-78
2022/10/10 13:53:13;;;;;;;5.43;3.17;;;;;;;;;;5022226;28;20470;-79
2022/10/10 13:55:39;;;;;;;5.43;3.00;;;;;;;;;;5030323;28;20446;-78
2022/10/10 13:58:08;;;;;;;5.23;2.60;;;;;;;;;;5026504;28;20441;-78
2022/10/10 14:00:34;;;;;;;13.70;3.60;;;;;;;;;;5032418;28;20791;-78
2022/10/10 14:03:00;;;;;;;7.93;3.27;;;;;;;;;;5027643;28;20862;-79
2022/10/10 14:05:28;;;;;;;11.83;4.00;;;;;;;;;;5026786;28;20949;-77
2022/10/10 14:07:55;;;;;;;6.77;3.57;;;;;;;;;;5013361;28;20413;-78
2022/10/10 14:10:23;;;;;;;4.67;3.00;;;;;;;;;;5026515;28;20437;-78
2022/10/10 14:12:54;;;;;;;8.47;3.60;;;;;;;;;;5021381;28;20458;-78
2022/10/10 14:15:42;;;;;;;4.57;3.53;;;;;;;;;;5026889;28;20537;-78
2022/10/10 14:18:11;;;;;;;6.80;2.70;;;;;;;;;;5021266;28;20465;-77
2022/10/10 14:20:37;;;;;;;7.87;3.57;;;;;;;;;;5026638;28;20486;-78
2022/10/10 14:23:03;;;;;;;6.20;2.80;;;;;;;;;;5029529;28;20473;-78
2022/10/10 14:25:30;;;;;;;6.03;3.13;;;;;;;;;;5022247;28;20959;-78
2022/10/10 14:27:56;;;;;;;4.77;2.80;;;;;;;;;;5020506;28;20480;-78
2022/10/10 14:30:22;;;;;;;5.87;3.17;;;;;;;;;;5026968;28;20421;-78
2022/10/10 14:32:49;;;;;;;6.13;3.50;;;;;;;;;;5031620;28;20418;-78
2022/10/10 14:35:15;;;;;;;5.17;3.33;;;;;;;;;;5042217;28;20491;-78
2022/10/10 14:37:40;;;;;;;5.03;3.83;;;;;;;;;;5044265;28;20744;-77
2022/10/10 14:40:26;;;;;;;7.67;3.47;;;;;;;;;;5027688;28;20532;-77
2022/10/10 14:42:52;;;;;;;8.20;3.20;;;;;;;;;;5042755;28;20430;-77
2022/10/10 14:45:18;;;;;;;6.93;3.07;;;;;;;;;;5056602;28;20479;-77
2022/10/10 14:47:44;;;;;;;11.13;3.40;;;;;;;;;;5044599;28;20417;-78
2022/10/10 14:50:13;;;;;;;6.10;3.30;;;;;;;;;;5042245;28;20434;-78
2022/10/10 14:52:39;;;;;;;6.70;3.30;;;;;;;;;;5027145;28;20426;-78
2022/10/10 14:55:05;;;;;;;4.67;3.27;;;;;;;;;;5040733;28;20437;-77
2022/10/10 14:57:32;;;;;;;31.93;4.90;;;;;;;;;;5044782;28;20830;-78
2022/10/10 14:59:57;;;;;;;8.63;3.63;;;;;;;;;;5041792;28;20592;-79